sensor_id;sensor_type;location;lat;lon;timestamp;P1;durP1;ratioP1;P2;durP2;ratioP2
42092;SDS011;28974;50.316;18.960;2024-03-07T00:10:46;95.18;;;35.05;;
42092;SDS011;28974;50.316;18.960;2024-03-07T00:22:47;95.20;;;39.33;;
42092;SDS011;28974;50.316;18.960;2024-03-07T00:34:48;75.75;;;30.70;;
42092;SDS011;28974;50.316;18.960;2024-03-07T00:46:49;91.82;;;34.22;;
42092;SDS011;28974;50.316;18.960;2024-03-07T00:58:50;87.50;;;34.55;;
42092;SDS011;28974;50.316;18.960;2024-03-07T01:10:51;95.78;;;36.95;;
42092;SDS011;28974;50.316;18.960;2024-03-07T01:22:52;82.10;;;32.63;;
42092;SDS011;28974;50.316;18.960;2024-03-07T01:34:52;90.03;;;34.35;;
42092;SDS011;28974;50.316;18.960;2024-03-07T01:46:53;82.28;;;32.67;;
42092;SDS011;28974;50.316;18.960;2024-03-07T01:58:54;99.88;;;37.42;;
42092;SDS011;28974;50.316;18.960;2024-03-07T02:10:55;103.35;;;38.22;;
42092;SDS011;28974;50.316;18.960;2024-03-07T02:22:58;96.60;;;37.80;;
42092;SDS011;28974;50.316;18.960;2024-03-07T02:34:59;101.70;;;39.28;;
42092;SDS011;28974;50.316;18.960;2024-03-07T02:46:59;110.85;;;36.95;;
42092;SDS011;28974;50.316;18.960;2024-03-07T02:59:03;100.90;;;40.22;;
42092;SDS011;28974;50.316;18.960;2024-03-07T03:11:03;100.50;;;39.42;;
42092;SDS011;28974;50.316;18.960;2024-03-07T03:23:04;94.15;;;38.20;;
42092;SDS011;28974;50.316;18.960;2024-03-07T03:35:06;106.35;;;38.20;;
42092;SDS011;28974;50.316;18.960;2024-03-07T03:47:08;93.15;;;37.33;;
42092;SDS011;28974;50.316;18.960;2024-03-07T03:59:08;74.20;;;31.60;;
42092;SDS011;28974;50.316;18.960;2024-03-07T04:11:09;78.55;;;31.90;;
42092;SDS011;28974;50.316;18.960;2024-03-07T04:23:10;71.88;;;29.52;;
42092;SDS011;28974;50.316;18.960;2024-03-07T04:35:11;92.38;;;31.70;;
42092;SDS011;28974;50.316;18.960;2024-03-07T04:47:11;81.50;;;32.90;;
42092;SDS011;28974;50.316;18.960;2024-03-07T04:59:15;66.68;;;29.05;;
42092;SDS011;28974;50.316;18.960;2024-03-07T05:11:16;79.25;;;33.75;;
42092;SDS011;28974;50.316;18.960;2024-03-07T05:23:18;74.38;;;31.33;;
42092;SDS011;28974;50.316;18.960;2024-03-07T05:35:19;68.00;;;30.38;;
42092;SDS011;28974;50.316;18.960;2024-03-07T05:47:20;71.25;;;33.70;;
42092;SDS011;28974;50.316;18.960;2024-03-07T05:59:25;86.55;;;32.13;;
42092;SDS011;28974;50.316;18.960;2024-03-07T06:11:25;73.63;;;32.30;;
42092;SDS011;28974;50.316;18.960;2024-03-07T06:23:26;88.65;;;36.25;;
42092;SDS011;28974;50.316;18.960;2024-03-07T06:35:29;80.50;;;32.72;;
42092;SDS011;28974;50.316;18.960;2024-03-07T06:47:29;89.25;;;35.88;;
42092;SDS011;28974;50.316;18.960;2024-03-07T06:59:29;87.97;;;36.92;;
42092;SDS011;28974;50.316;18.960;2024-03-07T07:11:31;79.10;;;31.67;;
42092;SDS011;28974;50.316;18.960;2024-03-07T07:23:31;77.90;;;31.88;;
42092;SDS011;28974;50.316;18.960;2024-03-07T07:35:32;78.97;;;33.08;;
42092;SDS011;28974;50.316;18.960;2024-03-07T07:47:39;78.25;;;31.92;;
42092;SDS011;28974;50.316;18.960;2024-03-07T07:59:42;77.90;;;32.50;;
42092;SDS011;28974;50.316;18.960;2024-03-07T08:11:42;84.07;;;33.50;;
42092;SDS011;28974;50.316;18.960;2024-03-07T08:23:43;84.55;;;33.58;;
42092;SDS011;28974;50.316;18.960;2024-03-07T08:35:43;69.60;;;30.35;;
42092;SDS011;28974;50.316;18.960;2024-03-07T08:47:43;71.25;;;30.00;;
42092;SDS011;28974;50.316;18.960;2024-03-07T08:59:44;80.85;;;34.72;;
42092;SDS011;28974;50.316;18.960;2024-03-07T09:11:44;75.57;;;33.60;;
42092;SDS011;28974;50.316;18.960;2024-03-07T09:23:45;81.17;;;33.77;;
42092;SDS011;28974;50.316;18.960;2024-03-07T09:35:46;76.43;;;32.05;;
42092;SDS011;28974;50.316;18.960;2024-03-07T09:47:48;78.18;;;32.25;;
42092;SDS011;28974;50.316;18.960;2024-03-07T09:59:48;85.10;;;37.88;;
42092;SDS011;28974;50.316;18.960;2024-03-07T10:11:56;98.32;;;39.72;;
42092;SDS011;28974;50.316;18.960;2024-03-07T10:24:06;96.40;;;39.50;;
42092;SDS011;28974;50.316;18.960;2024-03-07T10:36:11;87.97;;;38.45;;
42092;SDS011;28974;50.316;18.960;2024-03-07T10:48:16;95.05;;;40.35;;
42092;SDS011;28974;50.316;18.960;2024-03-07T11:00:17;86.13;;;37.40;;
42092;SDS011;28974;50.316;18.960;2024-03-07T11:12:30;98.32;;;40.97;;
42092;SDS011;28974;50.316;18.960;2024-03-07T11:24:31;102.20;;;44.33;;
42092;SDS011;28974;50.316;18.960;2024-03-07T11:36:42;106.75;;;44.42;;
42092;SDS011;28974;50.316;18.960;2024-03-07T11:48:45;109.22;;;43.22;;
42092;SDS011;28974;50.316;18.960;2024-03-07T12:00:48;97.10;;;40.80;;
42092;SDS011;28974;50.316;18.960;2024-03-07T12:12:49;112.03;;;41.53;;
42092;SDS011;28974;50.316;18.960;2024-03-07T12:25:00;85.60;;;37.70;;
42092;SDS011;28974;50.316;18.960;2024-03-07T12:37:06;88.13;;;35.25;;
42092;SDS011;28974;50.316;18.960;2024-03-07T12:49:06;89.83;;;36.60;;
42092;SDS011;28974;50.316;18.960;2024-03-07T13:01:07;82.13;;;33.28;;
42092;SDS011;28974;50.316;18.960;2024-03-07T13:13:07;85.90;;;33.17;;
42092;SDS011;28974;50.316;18.960;2024-03-07T13:25:11;95.28;;;35.47;;
42092;SDS011;28974;50.316;18.960;2024-03-07T13:37:16;104.93;;;36.03;;
42092;SDS011;28974;50.316;18.960;2024-03-07T13:49:18;94.03;;;33.83;;
42092;SDS011;28974;50.316;18.960;2024-03-07T14:01:32;74.50;;;29.90;;
42092;SDS011;28974;50.316;18.960;2024-03-07T14:26:28;66.40;;;26.27;;
42092;SDS011;28974;50.316;18.960;2024-03-07T14:38:43;54.67;;;22.08;;
42092;SDS011;28974;50.316;18.960;2024-03-07T14:50:55;73.25;;;27.80;;
42092;SDS011;28974;50.316;18.960;2024-03-07T15:02:56;54.58;;;22.02;;
42092;SDS011;28974;50.316;18.960;2024-03-07T15:14:57;62.88;;;23.77;;
42092;SDS011;28974;50.316;18.960;2024-03-07T15:26:57;48.42;;;19.95;;
42092;SDS011;28974;50.316;18.960;2024-03-07T15:38:57;72.85;;;26.25;;
42092;SDS011;28974;50.316;18.960;2024-03-07T15:50:59;61.30;;;25.23;;
42092;SDS011;28974;50.316;18.960;2024-03-07T16:03:03;45.40;;;20.38;;
42092;SDS011;28974;50.316;18.960;2024-03-07T16:15:04;51.28;;;20.83;;
42092;SDS011;28974;50.316;18.960;2024-03-07T16:27:05;63.55;;;24.98;;
42092;SDS011;28974;50.316;18.960;2024-03-07T16:39:06;51.07;;;22.30;;
42092;SDS011;28974;50.316;18.960;2024-03-07T16:51:07;70.15;;;28.15;;
42092;SDS011;28974;50.316;18.960;2024-03-07T17:03:08;64.45;;;27.02;;
42092;SDS011;28974;50.316;18.960;2024-03-07T17:15:13;72.47;;;31.80;;
42092;SDS011;28974;50.316;18.960;2024-03-07T17:27:15;73.38;;;28.70;;
42092;SDS011;28974;50.316;18.960;2024-03-07T17:39:15;75.68;;;31.15;;
42092;SDS011;28974;50.316;18.960;2024-03-07T17:51:16;85.13;;;35.10;;
42092;SDS011;28974;50.316;18.960;2024-03-07T18:03:16;67.63;;;32.03;;
42092;SDS011;28974;50.316;18.960;2024-03-07T18:15:17;79.85;;;33.00;;
42092;SDS011;28974;50.316;18.960;2024-03-07T18:27:18;88.97;;;35.90;;
42092;SDS011;28974;50.316;18.960;2024-03-07T18:39:20;66.13;;;28.38;;
42092;SDS011;28974;50.316;18.960;2024-03-07T18:51:21;73.93;;;29.80;;
42092;SDS011;28974;50.316;18.960;2024-03-07T19:03:23;72.93;;;31.23;;
42092;SDS011;28974;50.316;18.960;2024-03-07T19:15:24;77.43;;;34.45;;
42092;SDS011;28974;50.316;18.960;2024-03-07T19:27:25;92.25;;;38.08;;
42092;SDS011;28974;50.316;18.960;2024-03-07T19:39:25;106.97;;;42.30;;
42092;SDS011;28974;50.316;18.960;2024-03-07T19:51:27;107.53;;;43.50;;
42092;SDS011;28974;50.316;18.960;2024-03-07T20:03:27;97.22;;;39.67;;
42092;SDS011;28974;50.316;18.960;2024-03-07T20:15:33;88.57;;;39.17;;
42092;SDS011;28974;50.316;18.960;2024-03-07T20:27:33;105.10;;;45.03;;
42092;SDS011;28974;50.316;18.960;2024-03-07T20:39:35;112.35;;;43.13;;
42092;SDS011;28974;50.316;18.960;2024-03-07T20:51:35;109.30;;;43.88;;
42092;SDS011;28974;50.316;18.960;2024-03-07T21:03:38;110.80;;;46.72;;
42092;SDS011;28974;50.316;18.960;2024-03-07T21:15:41;116.65;;;44.97;;
42092;SDS011;28974;50.316;18.960;2024-03-07T21:27:41;116.63;;;44.80;;
42092;SDS011;28974;50.316;18.960;2024-03-07T21:39:43;122.63;;;45.90;;
42092;SDS011;28974;50.316;18.960;2024-03-07T21:51:45;125.53;;;49.15;;
42092;SDS011;28974;50.316;18.960;2024-03-07T22:03:46;123.25;;;46.42;;
42092;SDS011;28974;50.316;18.960;2024-03-07T22:15:46;139.70;;;54.75;;
42092;SDS011;28974;50.316;18.960;2024-03-07T22:27:48;142.70;;;55.10;;
42092;SDS011;28974;50.316;18.960;2024-03-07T22:39:49;122.50;;;47.53;;
42092;SDS011;28974;50.316;18.960;2024-03-07T22:51:51;141.32;;;51.90;;
42092;SDS011;28974;50.316;18.960;2024-03-07T23:03:58;136.75;;;53.65;;
42092;SDS011;28974;50.316;18.960;2024-03-07T23:16:02;137.40;;;51.37;;
42092;SDS011;28974;50.316;18.960;2024-03-07T23:28:04;126.88;;;48.88;;
42092;SDS011;28974;50.316;18.960;2024-03-07T23:40:04;130.73;;;48.15;;
42092;SDS011;28974;50.316;18.960;2024-03-07T23:52:05;120.13;;;45.30;;
